Time;durP1;ratioP1;P1;durP2;ratioP2;P2;SDS_P1;SDS_P2;PMS_P1;PMS_P2;Temp;Humidity;BMP_temperature;BMP_pressure;BME280_temperature;BME280_humidity;BME280_pressure;Samples;Min_cycle;Max_cycle;Signal;HPM_P1;HPM_P2
2022/05/22 00:02:05;;;;;;;3.17;2.60;;;21.70;63.60;;;;;;5076294;28;20188;-5
2022/05/22 00:04:37;;;;;;;4.17;2.80;;;21.70;63.70;;;;;;5076471;28;20554;-5
2022/05/22 00:07:05;;;;;;;3.47;2.60;;;21.70;63.60;;;;;;5074871;28;20206;-5
2022/05/22 00:09:32;;;;;;;3.37;3.00;;;21.70;63.70;;;;;;5079855;28;20229;-4
2022/05/22 00:11:58;;;;;;;3.07;2.77;;;21.70;63.70;;;;;;5062062;28;20173;-5
2022/05/22 00:14:26;;;;;;;3.33;2.70;;;21.60;63.70;;;;;;5062119;28;20248;-4
2022/05/22 00:16:52;;;;;;;2.90;2.53;;;21.60;63.70;;;;;;5079999;28;20181;-5
2022/05/22 00:19:24;;;;;;;4.13;2.70;;;21.60;63.70;;;;;;5079884;28;20163;-4
2022/05/22 00:21:50;;;;;;;2.90;2.60;;;21.60;63.70;;;;;;5080415;28;20161;-4
2022/05/22 00:24:20;;;;;;;3.20;2.70;;;21.60;63.70;;;;;;5062994;28;20183;-5
2022/05/22 00:26:47;;;;;;;2.90;2.60;;;21.60;63.60;;;;;;5079804;28;20241;-5
2022/05/22 00:29:14;;;;;;;3.10;2.37;;;21.60;63.60;;;;;;5080107;28;20175;-4
2022/05/22 00:31:39;;;;;;;2.50;2.30;;;21.60;64.30;;;;;;5079880;28;20166;-4
2022/05/22 00:34:05;;;;;;;2.90;2.50;;;21.60;63.60;;;;;;5061999;28;20283;-5
2022/05/22 00:36:31;;;;;;;3.43;2.43;;;21.50;63.60;;;;;;5079895;28;20223;-7
2022/05/22 00:38:57;;;;;;;3.03;2.73;;;21.50;63.50;;;;;;5061863;28;20183;-4
2022/05/22 00:41:24;;;;;;;3.17;2.70;;;21.50;63.50;;;;;;5080002;28;20200;-5
2022/05/22 00:43:53;;;;;;;2.63;2.40;;;21.50;63.50;;;;;;5080370;28;20266;-5
2022/05/22 00:46:21;;;;;;;2.57;2.37;;;21.50;63.50;;;;;;5062844;28;20181;-4
2022/05/22 00:48:50;;;;;;;2.80;2.60;;;21.50;63.50;;;;;;5079579;28;20774;-4
2022/05/22 00:51:30;;;;;;;2.27;2.07;;;21.50;63.50;;;;;;5079529;28;20478;-5
2022/05/22 00:54:01;;;;;;;2.57;2.37;;;21.50;63.50;;;;;;5062197;28;20175;-4
2022/05/22 00:56:35;;;;;;;3.43;2.70;;;21.50;63.50;;;;;;5079356;28;20679;-5
2022/05/22 00:59:04;;;;;;;2.60;2.40;;;21.50;63.60;;;;;;5079276;28;20253;-5
2022/05/22 01:01:32;;;;;;;2.30;2.10;;;21.50;64.10;;;;;;5079339;28;20209;-4
2022/05/22 01:03:58;;;;;;;3.97;2.50;;;21.50;63.50;;;;;;5079744;28;20219;-6
2022/05/22 01:06:26;;;;;;;3.17;2.40;;;21.40;63.40;;;;;;5062082;28;20599;-6
2022/05/22 01:08:52;;;;;;;2.70;2.50;;;21.50;63.50;;;;;;5079160;28;20144;-5
2022/05/22 01:11:38;;;;;;;2.73;2.43;;;21.40;63.50;;;;;;5079394;28;20667;-4
2022/05/22 01:14:09;;;;;;;2.93;2.67;;;21.40;63.50;;;;;;5079485;28;20549;-4
2022/05/22 01:16:35;;;;;;;2.60;2.40;;;21.40;63.50;;;;;;5079190;28;20164;-5
2022/05/22 01:19:08;;;;;;;2.53;2.27;;;21.40;63.50;;;;;;5060519;28;20555;-8
2022/05/22 01:21:34;;;;;;;2.63;2.40;;;21.40;63.50;;;;;;5061609;28;20446;-5
2022/05/22 01:23:59;;;;;;;2.47;2.27;;;21.40;63.60;;;;;;5062034;28;20450;-5
2022/05/22 01:26:27;;;;;;;3.23;2.50;;;21.30;63.50;;;;;;5078851;28;20157;-6
2022/05/22 01:28:53;;;;;;;2.37;2.07;;;21.30;63.50;;;;;;5061156;28;20270;-5
2022/05/22 01:31:19;;;;;;;3.10;2.20;;;21.30;63.60;;;;;;5061783;28;20249;-5
2022/05/22 01:33:45;;;;;;;2.27;2.07;;;21.30;63.60;;;;;;5061429;28;20181;-5
2022/05/22 01:36:11;;;;;;;2.77;2.47;;;21.30;63.60;;;;;;5078283;28;20178;-4
2022/05/22 01:38:37;;;;;;;2.33;2.10;;;21.30;63.60;;;;;;5061670;28;20179;-6
2022/05/22 01:41:05;;;;;;;3.43;2.20;;;21.30;63.60;;;;;;5079148;28;20201;-6
2022/05/22 01:43:31;;;;;;;3.93;2.60;;;21.30;63.70;;;;;;5078816;28;20181;-5
2022/05/22 01:45:57;;;;;;;3.40;2.40;;;21.20;63.70;;;;;;5079223;28;20160;-4
2022/05/22 01:48:23;;;;;;;2.37;2.17;;;21.30;63.70;;;;;;5061157;28;20431;-4
2022/05/22 01:50:51;;;;;;;3.10;2.27;;;21.20;63.70;;;;;;5060931;28;20244;-4
2022/05/22 01:53:18;;;;;;;2.60;2.20;;;21.20;63.70;;;;;;5078953;28;20148;-6
2022/05/22 01:55:44;;;;;;;2.47;2.27;;;21.20;63.70;;;;;;5060732;28;20278;-5
2022/05/22 01:58:10;;;;;;;2.13;1.93;;;21.20;63.70;;;;;;5078170;28;20236;-5
2022/05/22 02:00:40;;;;;;;2.27;2.07;;;21.20;63.70;;;;;;5060807;28;20273;-6
2022/05/22 02:03:07;;;;;;;2.40;2.20;;;21.20;63.70;;;;;;5078448;28;20161;-6
2022/05/22 02:05:34;;;;;;;3.63;2.47;;;21.20;63.70;;;;;;5078209;28;20613;-4
2022/05/22 02:10:57;;;;;;;3.33;2.20;;;21.20;63.70;;;;;;5078274;28;20196;-5
2022/05/22 02:13:26;;;;;;;2.73;2.30;;;21.10;63.70;;;;;;5078706;28;20450;-5
2022/05/22 02:15:52;;;;;;;2.27;1.83;;;21.10;63.70;;;;;;5078092;28;20220;-5
2022/05/22 02:18:19;;;;;;;2.20;2.00;;;21.10;63.70;;;;;;5061021;28;20166;-5
2022/05/22 02:20:45;;;;;;;2.10;1.90;;;21.10;63.60;;;;;;5060917;28;20203;-4
2022/05/22 02:23:11;;;;;;;2.13;1.90;;;21.10;63.60;;;;;;5060445;28;20273;-4
2022/05/22 02:25:41;;;;;;;2.00;1.80;;;21.10;63.60;;;;;;5060659;28;20204;-5
2022/05/22 02:28:17;;;;;;;2.27;2.07;;;21.10;63.60;;;;;;5060396;28;20225;-5
2022/05/22 02:30:47;;;;;;;2.70;2.00;;;21.10;64.20;;;;;;5077741;28;20285;-5
2022/05/22 02:33:12;;;;;;;2.73;1.93;;;21.10;63.60;;;;;;5077475;28;20172;-5
2022/05/22 02:35:38;;;;;;;2.40;2.00;;;21.00;63.50;;;;;;5060446;28;20275;-5
2022/05/22 02:38:10;;;;;;;2.70;1.70;;;21.00;63.50;;;;;;5078180;28;20546;-6
2022/05/22 02:40:38;;;;;;;2.37;2.17;;;21.00;63.50;;;;;;5077764;28;20577;-4
2022/05/22 02:43:04;;;;;;;3.63;2.10;;;21.00;63.10;;;;;;5078023;28;20499;-5
2022/05/22 02:45:32;;;;;;;1.70;1.60;;;21.00;63.50;;;;;;5077848;28;20590;-4
2022/05/22 02:47:58;;;;;;;2.70;1.90;;;21.00;63.50;;;;;;5060385;28;20167;-5
2022/05/22 02:50:26;;;;;;;2.53;2.13;;;21.00;63.60;;;;;;5060392;28;20566;-6
2022/05/22 02:52:52;;;;;;;2.10;1.73;;;21.00;63.60;;;;;;5060523;28;20168;-6
2022/05/22 02:55:19;;;;;;;2.00;1.80;;;21.00;63.70;;;;;;5077418;28;20492;-4
2022/05/22 02:57:48;;;;;;;2.33;1.90;;;20.90;63.60;;;;;;5077624;28;20158;-4
2022/05/22 03:00:19;;;;;;;2.13;1.83;;;20.90;63.70;;;;;;5077652;28;20158;-5
2022/05/22 03:02:45;;;;;;;2.40;2.00;;;20.90;63.60;;;;;;5077724;28;20173;-5
2022/05/22 03:05:12;;;;;;;2.47;1.80;;;20.90;63.70;;;;;;5077483;28;20181;-4
2022/05/22 03:07:38;;;;;;;2.53;2.00;;;20.90;63.70;;;;;;5077978;28;20159;-4
2022/05/22 03:10:06;;;;;;;2.40;1.80;;;20.90;63.70;;;;;;5077456;28;20205;-4
2022/05/22 03:12:33;;;;;;;3.30;2.00;;;20.90;63.70;;;;;;5060373;28;20178;-5
2022/05/22 03:14:59;;;;;;;3.20;1.70;;;20.90;63.80;;;;;;5059692;28;20178;-5
2022/05/22 03:17:25;;;;;;;3.13;1.97;;;20.90;63.70;;;;;;5077425;28;20158;-5
2022/05/22 03:19:52;;;;;;;2.53;1.80;;;20.90;63.70;;;;;;5059711;28;20173;-5
2022/05/22 03:22:18;;;;;;;2.53;2.00;;;20.90;64.40;;;;;;5077457;28;20266;-4
2022/05/22 03:24:43;;;;;;;2.47;1.80;;;20.90;63.90;;;;;;5077197;28;20215;-6
2022/05/22 03:27:12;;;;;;;3.33;1.70;;;20.80;63.80;;;;;;5059555;28;20514;-4
2022/05/22 03:29:40;;;;;;;2.70;2.07;;;20.80;63.80;;;;;;5077404;28;20611;-5
2022/05/22 03:32:07;;;;;;;3.03;1.90;;;20.80;63.80;;;;;;5077180;28;20160;-5
2022/05/22 03:34:33;;;;;;;1.80;1.50;;;20.80;63.80;;;;;;5077336;28;20257;-4
2022/05/22 03:37:00;;;;;;;2.67;1.93;;;20.80;63.80;;;;;;5077167;28;20193;-4
2022/05/22 03:39:27;;;;;;;3.83;1.80;;;20.80;63.80;;;;;;5060111;28;20182;-6
2022/05/22 03:41:53;;;;;;;2.43;1.80;;;20.80;63.70;;;;;;5077260;28;20176;-4
2022/05/22 03:44:19;;;;;;;4.03;2.17;;;20.80;63.70;;;;;;5063269;28;20175;-4
2022/05/22 03:46:45;;;;;;;2.33;1.80;;;20.80;63.70;;;;;;5081037;28;20158;-5
2022/05/22 03:49:12;;;;;;;3.80;1.80;;;20.80;63.70;;;;;;5080774;28;20229;-4
2022/05/22 03:51:39;;;;;;;4.13;2.20;;;20.70;63.60;;;;;;5080478;28;20179;-5
2022/05/22 03:54:06;;;;;;;2.13;1.90;;;20.70;63.70;;;;;;5080919;28;20240;-5
2022/05/22 03:56:32;;;;;;;2.07;1.87;;;20.70;63.60;;;;;;5080685;28;20466;-4
2022/05/22 03:59:00;;;;;;;3.30;2.10;;;20.70;63.60;;;;;;5080605;28;20178;-5
2022/05/22 04:01:26;;;;;;;2.23;1.70;;;20.70;63.60;;;;;;5080733;28;20172;-5
2022/05/22 04:03:52;;;;;;;2.47;1.77;;;20.70;63.50;;;;;;5080443;28;20450;-6
2022/05/22 04:06:17;;;;;;;2.83;1.80;;;20.70;63.50;;;;;;5080443;28;20563;-5
2022/05/22 04:08:43;;;;;;;2.77;1.80;;;20.70;63.40;;;;;;5063086;28;20177;-4
2022/05/22 04:11:12;;;;;;;2.17;1.70;;;20.70;63.40;;;;;;5080650;28;20199;-5
2022/05/22 04:13:39;;;;;;;2.60;1.67;;;20.70;63.40;;;;;;5080358;28;20200;-5
2022/05/22 04:16:04;;;;;;;5.03;1.80;;;20.70;63.30;;;;;;5062664;28;20213;-5
2022/05/22 04:18:31;;;;;;;2.33;1.80;;;20.70;63.20;;;;;;5063014;28;20515;-4
2022/05/22 04:20:57;;;;;;;3.33;2.20;;;20.70;63.20;;;;;;5079811;28;20518;-5
2022/05/22 04:26:07;;;;;;;3.33;1.87;;;20.70;63.00;;;;;;5080336;28;20214;-5
2022/05/22 04:28:33;;;;;;;3.23;1.67;;;20.70;63.00;;;;;;5062846;28;20186;-5
2022/05/22 04:30:59;;;;;;;2.23;1.70;;;20.70;62.90;;;;;;5080142;28;20200;-5
2022/05/22 04:33:26;;;;;;;2.03;1.50;;;20.70;62.80;;;;;;5080218;28;20163;-5
2022/05/22 04:35:52;;;;;;;2.73;1.73;;;20.70;62.80;;;;;;5079704;28;20230;-4
2022/05/22 04:38:19;;;;;;;2.03;1.70;;;20.70;62.70;;;;;;5062576;28;20196;-5
2022/05/22 04:40:56;;;;;;;3.00;1.90;;;20.70;62.60;;;;;;5062631;28;20176;-5
2022/05/22 04:43:23;;;;;;;2.47;1.70;;;20.70;62.50;;;;;;5061412;28;20168;-5
2022/05/22 04:45:50;;;;;;;2.10;1.50;;;20.70;62.50;;;;;;5062329;28;20244;-4
2022/05/22 04:48:23;;;;;;;1.90;1.60;;;20.70;62.40;;;;;;5062618;28;20291;-5
2022/05/22 04:50:50;;;;;;;2.97;1.63;;;20.80;62.50;;;;;;5062151;28;20293;-5
2022/05/22 04:53:19;;;;;;;2.30;1.60;;;20.80;62.40;;;;;;5080040;28;20174;-5
2022/05/22 04:55:45;;;;;;;3.50;1.70;;;20.70;62.20;;;;;;5061134;28;20197;-4
2022/05/22 04:58:11;;;;;;;1.90;1.60;;;20.80;62.30;;;;;;5079521;28;20529;-6
2022/05/22 05:00:38;;;;;;;2.33;1.73;;;20.80;62.20;;;;;;5079576;28;20179;-6
2022/05/22 05:03:04;;;;;;;2.37;1.70;;;20.80;62.10;;;;;;5061859;28;20282;-5
2022/05/22 05:05:30;;;;;;;1.40;1.30;;;20.80;62.10;;;;;;5061766;28;20181;-5
2022/05/22 05:07:55;;;;;;;1.93;1.60;;;20.80;62.00;;;;;;5061512;28;20177;-6
2022/05/22 05:10:21;;;;;;;2.90;1.60;;;20.80;62.00;;;;;;5079021;28;20210;-7
2022/05/22 05:12:47;;;;;;;2.80;1.80;;;20.80;61.90;;;;;;5061381;28;20171;-6
2022/05/22 05:15:18;;;;;;;2.07;1.70;;;20.80;61.90;;;;;;5078610;28;20218;-6
2022/05/22 05:17:45;;;;;;;2.37;1.53;;;20.80;61.80;;;;;;5078870;28;20177;-6
2022/05/22 05:20:12;;;;;;;1.50;1.33;;;20.80;61.70;;;;;;5079212;28;20179;-7
2022/05/22 05:22:38;;;;;;;2.40;1.80;;;20.80;61.60;;;;;;5078576;28;20330;-4
2022/05/22 05:25:05;;;;;;;1.90;1.70;;;20.80;61.40;;;;;;5061750;28;20684;-4
2022/05/22 05:27:31;;;;;;;2.00;1.80;;;20.90;61.30;;;;;;5061782;28;20308;-4
2022/05/22 05:29:57;;;;;;;2.07;1.57;;;20.90;61.10;;;;;;5061818;28;20199;-5
2022/05/22 05:32:25;;;;;;;3.27;1.73;;;20.90;60.90;;;;;;5078692;28;20564;-4
2022/05/22 05:35:05;;;;;;;2.20;1.60;;;20.90;60.60;;;;;;5078837;28;20586;-4
2022/05/22 05:37:30;;;;;;;2.00;1.63;;;20.90;60.30;;;;;;5061583;28;20195;-4
2022/05/22 05:39:57;;;;;;;1.50;1.40;;;21.00;60.00;;;;;;5078603;28;20446;-5
2022/05/22 05:42:26;;;;;;;1.90;1.70;;;21.00;59.80;;;;;;5078623;28;20672;-5
2022/05/22 05:44:52;;;;;;;2.50;1.40;;;21.10;59.50;;;;;;5078553;28;20181;-5
2022/05/22 05:47:18;;;;;;;1.73;1.43;;;21.20;59.10;;;;;;5078692;28;20245;-5
2022/05/22 05:49:46;;;;;;;3.33;1.60;;;21.30;58.80;;;;;;5078175;28;20219;-5
2022/05/22 05:52:11;;;;;;;2.43;1.70;;;21.30;58.60;;;;;;5061118;28;20174;-5
2022/05/22 05:54:37;;;;;;;1.80;1.47;;;21.30;58.50;;;;;;5078475;28;20179;-4
2022/05/22 05:57:03;;;;;;;2.40;1.30;;;21.30;58.40;;;;;;5078396;28;20163;-5
2022/05/22 05:59:29;;;;;;;3.37;1.63;;;21.30;58.30;;;;;;5078363;28;20209;-5
2022/05/22 06:01:55;;;;;;;2.23;1.60;;;21.30;58.40;;;;;;5060756;28;20213;-5
2022/05/22 06:04:20;;;;;;;3.93;1.60;;;21.30;58.50;;;;;;5077960;28;20198;-5
2022/05/22 06:06:46;;;;;;;2.83;1.70;;;21.40;58.70;;;;;;5078050;28;20156;-4
2022/05/22 06:09:12;;;;;;;2.10;1.70;;;21.40;58.80;;;;;;5078140;28;20171;-5
2022/05/22 06:11:38;;;;;;;1.50;1.40;;;21.40;58.70;;;;;;5078034;28;20228;-5
2022/05/22 06:14:03;;;;;;;2.77;1.40;;;21.50;58.50;;;;;;5078035;28;20180;-4
2022/05/22 06:16:29;;;;;;;1.97;1.60;;;21.80;57.70;;;;;;5077715;28;20168;-5
2022/05/22 06:18:58;;;;;;;3.00;1.60;;;22.10;56.70;;;;;;5076605;28;20588;-4
2022/05/22 06:21:24;;;;;;;1.97;1.57;;;22.40;55.90;;;;;;5060321;28;20175;-4
2022/05/22 06:23:50;;;;;;;2.07;1.50;;;22.50;55.40;;;;;;5077761;28;20304;-5
2022/05/22 06:26:18;;;;;;;1.90;1.67;;;22.70;55.10;;;;;;5059966;28;20246;-5
2022/05/22 06:28:44;;;;;;;2.80;1.60;;;22.80;54.80;;;;;;5059845;28;20487;-5
2022/05/22 06:31:11;;;;;;;1.87;1.50;;;22.90;54.50;;;;;;5060373;28;20304;-5
2022/05/22 06:33:38;;;;;;;3.53;1.90;;;23.00;54.20;;;;;;5059920;28;20657;-4
2022/05/22 06:36:15;;;;;;;1.77;1.57;;;23.20;53.90;;;;;;5077087;28;20274;-7
2022/05/22 06:41:25;;;;;;;1.87;1.60;;;23.30;53.40;;;;;;5077284;28;20231;-6
2022/05/22 06:43:54;;;;;;;1.90;1.70;;;23.40;53.10;;;;;;5054416;28;20176;-6
2022/05/22 06:46:30;;;;;;;1.67;1.47;;;23.50;52.90;;;;;;5077682;28;20547;-5
2022/05/22 06:48:57;;;;;;;2.23;1.40;;;23.60;52.60;;;;;;5060222;28;20606;-5
2022/05/22 06:51:23;;;;;;;2.37;1.60;;;23.70;52.50;;;;;;5077192;28;20223;-3
2022/05/22 06:53:48;;;;;;;2.57;1.97;;;23.80;52.30;;;;;;5060385;28;20170;-5
2022/05/22 06:56:14;;;;;;;2.40;1.70;;;23.90;52.10;;;;;;5077115;28;20176;-6
2022/05/22 06:59:10;;;;;;;4.30;1.70;;;24.00;51.90;;;;;;5057700;28;20217;-5
2022/05/22 07:01:35;;;;;;;1.90;1.70;;;24.00;51.70;;;;;;5057269;28;20448;-3
2022/05/22 07:04:08;;;;;;;2.97;1.80;;;24.10;51.40;;;;;;5074197;28;20178;-5
2022/05/22 07:06:34;;;;;;;3.40;1.60;;;24.20;51.40;;;;;;5057113;28;20168;-3
2022/05/22 07:08:59;;;;;;;2.93;1.93;;;24.30;51.40;;;;;;5073320;28;20190;-5
2022/05/22 07:11:41;;;;;;;2.20;1.80;;;24.30;51.10;;;;;;5074133;28;20206;-4
2022/05/22 07:14:09;;;;;;;2.03;1.60;;;24.40;51.00;;;;;;5076988;28;20221;-4
2022/05/22 07:16:36;;;;;;;2.37;1.70;;;24.50;50.90;;;;;;5044798;28;20171;-3
2022/05/22 07:19:03;;;;;;;2.37;1.60;;;24.50;50.80;;;;;;5058120;28;20171;-5
2022/05/22 07:21:35;;;;;;;3.00;1.90;;;24.60;50.80;;;;;;5076633;28;20547;-5
2022/05/22 07:24:00;;;;;;;2.57;1.60;;;24.60;50.70;;;;;;5076450;28;20168;-5
2022/05/22 07:26:27;;;;;;;2.17;1.55;;;24.60;50.70;;;;;;5059240;28;20262;-5
2022/05/22 07:28:53;;;;;;;2.15;1.70;;;24.70;50.60;;;;;;5076822;28;20195;-4
2022/05/22 07:31:22;;;;;;;2.53;1.80;;;24.70;50.50;;;;;;5058505;28;20648;-4
2022/05/22 07:33:48;;;;;;;2.13;1.63;;;24.70;50.50;;;;;;5059254;28;20184;-4
2022/05/22 07:36:14;;;;;;;2.07;1.70;;;24.80;50.70;;;;;;5076608;28;20172;-7
2022/05/22 07:38:40;;;;;;;1.85;1.50;;;24.90;50.60;;;;;;5076636;28;20270;-5
2022/05/22 07:41:06;;;;;;;3.25;2.03;;;24.90;50.50;;;;;;5059161;28;20186;-4
2022/05/22 07:43:32;;;;;;;2.30;1.80;;;25.10;50.60;;;;;;5076476;28;20207;-4
2022/05/22 07:45:58;;;;;;;3.20;1.75;;;25.10;50.50;;;;;;5059305;28;20168;-4
2022/05/22 07:48:24;;;;;;;2.55;1.80;;;25.20;50.50;;;;;;5076605;28;20182;-5
2022/05/22 07:51:01;;;;;;;3.88;2.03;;;25.20;50.40;;;;;;5059560;28;20592;-6
2022/05/22 07:53:28;;;;;;;3.30;1.88;;;25.30;50.50;;;;;;5075237;28;20176;-5
2022/05/22 07:55:54;;;;;;;2.00;1.65;;;25.40;50.50;;;;;;5058220;28;20175;-4
2022/05/22 07:58:22;;;;;;;2.00;1.80;;;25.40;50.50;;;;;;5058581;28;20202;-6
2022/05/22 08:00:50;;;;;;;2.75;1.95;;;25.40;50.60;;;;;;5076396;28;20317;-5
2022/05/22 08:03:17;;;;;;;2.78;2.00;;;25.50;50.70;;;;;;5076233;28;20179;-4
2022/05/22 08:05:43;;;;;;;4.00;1.80;;;25.50;50.70;;;;;;5058182;28;20187;-4
2022/05/22 08:08:10;;;;;;;2.72;2.00;;;25.60;50.70;;;;;;5058340;28;20176;-4
2022/05/22 08:10:39;;;;;;;2.95;1.83;;;25.60;50.70;;;;;;5075559;28;20364;-5
2022/05/22 08:13:06;;;;;;;3.20;1.90;;;25.60;50.70;;;;;;5058465;28;20225;-5
2022/05/22 08:15:33;;;;;;;3.20;1.90;;;25.60;50.70;;;;;;5067983;22;20195;-7
2022/05/22 08:17:59;;;;;;;2.08;1.63;;;25.60;50.80;;;;;;5071863;28;20191;-8
2022/05/22 08:20:26;;;;;;;2.67;1.83;;;25.70;50.80;;;;;;5069868;28;20569;-7
2022/05/22 08:22:58;;;;;;;2.97;1.75;;;25.70;50.90;;;;;;5070628;28;20450;-8
2022/05/22 08:25:26;;;;;;;3.17;1.92;;;25.70;50.90;;;;;;5069847;28;20206;-9
2022/05/22 08:27:53;;;;;;;2.60;2.10;;;25.70;50.90;;;;;;5069401;28;20168;-8
2022/05/22 08:30:20;;;;;;;2.90;2.00;;;25.70;51.00;;;;;;5073345;28;20472;-8
2022/05/22 08:32:48;;;;;;;4.20;2.00;;;25.70;51.00;;;;;;5071590;28;20770;-8
2022/05/22 08:35:17;;;;;;;2.35;1.83;;;25.70;51.00;;;;;;5073704;28;20682;-7
2022/05/22 08:37:43;;;;;;;2.00;1.80;;;25.70;51.10;;;;;;5072159;28;20172;-7
2022/05/22 08:40:12;;;;;;;2.75;1.77;;;25.70;51.00;;;;;;5072441;28;20172;-8
2022/05/22 08:42:49;;;;;;;2.58;1.75;;;25.70;51.00;;;;;;5074000;28;20178;-8
2022/05/22 08:45:18;;;;;;;4.15;2.00;;;25.80;51.00;;;;;;5071965;28;19995;-8
2022/05/22 08:48:06;;;;;;;3.70;1.75;;;25.80;51.00;;;;;;5073751;28;20680;-7
2022/05/22 08:50:33;;;;;;;3.08;1.85;;;25.80;50.90;;;;;;5078441;28;20222;-5
2022/05/22 08:53:10;;;;;;;2.42;1.95;;;25.90;51.00;;;;;;5077105;28;20172;-6
2022/05/22 09:01:27;;;;;;;3.05;1.70;;;26.00;51.00;;;;;;5078259;28;20178;-6
2022/05/22 09:04:03;;;;;;;3.20;2.03;;;26.00;50.90;;;;;;5077198;28;20704;-6
2022/05/22 09:06:51;;;;;;;3.25;2.00;;;26.10;51.00;;;;;;5077534;28;20182;-5
2022/05/22 09:09:17;;;;;;;2.50;1.90;;;26.10;50.90;;;;;;5078197;28;20277;-6
2022/05/22 09:12:08;;;;;;;2.97;1.80;;;26.10;50.90;;;;;;5076315;28;20167;-6
2022/05/22 09:14:58;;;;;;;2.47;1.80;;;26.10;50.80;;;;;;5077117;28;20168;-6
2022/05/22 09:17:36;;;;;;;2.38;1.77;;;26.10;50.80;;;;;;5077647;28;20637;-5
2022/05/22 09:20:02;;;;;;;3.08;1.70;;;26.20;50.80;;;;;;5077589;28;20175;-5
2022/05/22 09:22:34;;;;;;;3.08;1.90;;;26.20;50.80;;;;;;5077539;28;20183;-6
2022/05/22 09:25:27;;;;;;;3.85;1.80;;;26.20;50.90;;;;;;5077080;28;20186;-6
2022/05/22 09:28:11;;;;;;;4.40;1.95;;;26.20;51.00;;;;;;5077525;28;20226;-6
2022/05/22 09:31:13;;;;;;;4.32;2.00;;;26.20;51.00;;;;;;5067812;28;20644;-5
2022/05/22 09:33:57;;;;;;;2.67;1.70;;;26.20;51.00;;;;;;5069808;28;20221;-6
2022/05/22 09:39:58;;;;;;;2.25;1.70;;;26.20;51.00;;;;;;5076651;28;20202;-5
2022/05/22 09:42:47;;;;;;;3.50;1.75;;;26.30;51.00;;;;;;5077572;28;20608;-6
2022/05/22 09:45:51;;;;;;;3.67;1.80;;;26.30;51.10;;;;;;5077089;28;20174;-5
2022/05/22 09:48:59;;;;;;;2.42;1.70;;;26.30;51.00;;;;;;5076585;28;20546;-5
2022/05/22 09:51:30;;;;;;;3.67;1.80;;;26.30;51.00;;;;;;5076459;28;20540;-6
2022/05/22 09:54:30;;;;;;;2.33;1.60;;;26.30;51.00;;;;;;5076705;28;20442;-7
2022/05/22 10:03:49;;;;;;;2.67;1.52;;;26.40;51.10;;;;;;5076880;28;20214;-6
2022/05/22 10:06:50;;;;;;;3.25;1.90;;;26.30;51.10;;;;;;5076280;28;20187;-6
2022/05/22 10:09:31;;;;;;;2.45;1.60;;;26.20;51.20;;;;;;5070201;28;20290;-5
2022/05/22 10:12:25;;;;;;;2.00;1.50;;;26.20;51.40;;;;;;5076079;28;20645;-6
2022/05/22 10:15:12;;;;;;;3.28;1.67;;;26.20;51.40;;;;;;5076215;28;20163;-6
2022/05/22 10:17:53;;;;;;;2.33;1.40;;;26.20;51.50;;;;;;5076640;28;20183;-6
2022/05/22 10:20:56;;;;;;;2.20;1.70;;;26.20;51.60;;;;;;5075688;28;20167;-6
2022/05/22 10:23:53;;;;;;;2.75;1.58;;;26.20;51.60;;;;;;5076324;28;20676;-6
2022/05/22 10:26:58;;;;;;;2.72;1.67;;;26.20;51.70;;;;;;5075592;28;20199;-5
2022/05/22 10:29:43;;;;;;;2.88;1.75;;;26.20;51.70;;;;;;5075488;28;20159;-6
2022/05/22 10:32:22;;;;;;;3.75;1.75;;;26.10;51.70;;;;;;5076129;28;20156;-5
2022/05/22 10:34:57;;;;;;;2.72;1.80;;;26.10;51.70;;;;;;5075265;28;20172;-6
2022/05/22 10:37:29;;;;;;;3.65;1.50;;;26.10;51.80;;;;;;5076184;28;20208;-5
2022/05/22 10:39:57;;;;;;;2.60;1.70;;;26.10;51.80;;;;;;5075266;28;20186;-8
2022/05/22 10:42:47;;;;;;;3.60;1.73;;;26.10;51.90;;;;;;5076467;28;20623;-6
2022/05/22 10:45:21;;;;;;;2.63;1.70;;;26.10;52.00;;;;;;5076320;28;20182;-5
2022/05/22 10:47:49;;;;;;;4.53;1.50;;;26.10;52.00;;;;;;5075005;28;20206;-6
2022/05/22 10:50:20;;;;;;;3.00;1.70;;;26.10;52.00;;;;;;5074990;28;20258;-5
2022/05/22 10:52:47;;;;;;;2.63;1.65;;;26.10;52.10;;;;;;5074123;28;20267;-5
2022/05/22 10:55:38;;;;;;;2.63;1.73;;;26.10;52.10;;;;;;5075362;28;20171;-6
2022/05/22 10:58:21;;;;;;;2.40;1.53;;;26.10;52.20;;;;;;5075908;28;20503;-5
2022/05/22 11:01:14;;;;;;;2.20;1.60;;;26.10;52.20;;;;;;5067362;28;20533;-6
2022/05/22 11:03:39;;;;;;;3.10;1.67;;;26.10;52.30;;;;;;5072386;28;20470;-6
2022/05/22 11:06:17;;;;;;;4.80;2.10;;;26.10;52.30;;;;;;5074749;28;20732;-5
2022/05/22 11:08:52;;;;;;;3.00;1.70;;;26.10;52.40;;;;;;5068729;28;20183;-6
2022/05/22 11:11:33;;;;;;;2.73;1.50;;;26.10;52.40;;;;;;5075859;28;20582;-5
2022/05/22 11:14:13;;;;;;;3.90;1.50;;;26.10;52.40;;;;;;5063225;28;20171;-6
2022/05/22 11:16:40;;;;;;;3.00;1.60;;;26.10;52.90;;;;;;5070113;28;20285;-4
2022/05/22 11:19:25;;;;;;;3.20;1.60;;;26.10;52.60;;;;;;5069798;28;20174;-6
2022/05/22 11:22:14;;;;;;;3.40;1.67;;;26.00;52.50;;;;;;5075873;28;20225;-6
2022/05/22 11:25:03;;;;;;;2.50;1.73;;;26.10;52.60;;;;;;5075661;28;20237;-5
2022/05/22 11:27:59;;;;;;;3.30;1.53;;;26.10;52.70;;;;;;5074431;28;20186;-6
2022/05/22 11:30:43;;;;;;;4.40;1.80;;;26.10;52.60;;;;;;5075027;28;20598;-5
2022/05/22 11:33:33;;;;;;;2.40;1.60;;;26.10;52.70;;;;;;5074811;28;20175;-5
2022/05/22 11:36:15;;;;;;;2.80;1.70;;;26.10;52.70;;;;;;5067688;28;20167;-6
2022/05/22 11:39:22;;;;;;;2.33;1.60;;;26.10;52.70;;;;;;5074034;28;20164;-6
2022/05/22 11:41:53;;;;;;;3.17;1.67;;;26.10;52.80;;;;;;5074469;28;20179;-6
2022/05/22 11:44:42;;;;;;;2.07;1.40;;;26.10;52.80;;;;;;5074347;28;20180;-6
2022/05/22 11:47:23;;;;;;;3.70;1.67;;;26.10;52.80;;;;;;5074548;28;20186;-7
2022/05/22 11:50:11;;;;;;;2.63;1.67;;;26.10;52.80;;;;;;5074039;28;20293;-5
2022/05/22 11:52:54;;;;;;;2.37;1.60;;;26.10;52.90;;;;;;5072918;28;20184;-5
2022/05/22 11:55:39;;;;;;;4.07;1.70;;;26.10;52.90;;;;;;5075068;28;20163;-6
2022/05/22 11:58:08;;;;;;;2.43;1.80;;;26.10;52.90;;;;;;5074572;28;20164;-4
2022/05/22 12:00:44;;;;;;;2.20;1.40;;;26.10;53.00;;;;;;5074935;28;20175;-7
2022/05/22 12:03:20;;;;;;;3.40;1.80;;;26.10;53.00;;;;;;5074281;28;20248;-5
2022/05/22 12:06:13;;;;;;;3.30;1.83;;;26.10;53.10;;;;;;5077752;28;20174;-6
2022/05/22 12:08:45;;;;;;;3.67;1.90;;;26.10;53.10;;;;;;5075753;28;20187;-6
2022/05/22 12:11:32;;;;;;;3.03;1.70;;;26.10;53.10;;;;;;5073533;28;20195;-6
2022/05/22 12:14:05;;;;;;;1.60;1.47;;;26.00;53.10;;;;;;5074834;28;20179;-7
2022/05/22 12:16:42;;;;;;;2.90;1.70;;;26.10;53.20;;;;;;5077307;28;20188;-6
2022/05/22 12:19:23;;;;;;;2.70;1.70;;;26.10;53.20;;;;;;5078333;28;20439;-5
2022/05/22 12:25:27;;;;;;;2.70;1.60;;;26.10;53.20;;;;;;5059500;28;20186;-6
2022/05/22 12:27:57;;;;;;;3.13;1.57;;;26.10;53.20;;;;;;5075271;28;20160;-7
2022/05/22 12:30:40;;;;;;;3.27;1.63;;;26.00;53.30;;;;;;5076770;28;20605;-5
2022/05/22 12:33:16;;;;;;;3.80;1.80;;;26.00;53.30;;;;;;5072504;28;20244;-7
2022/05/22 12:35:44;;;;;;;4.80;1.63;;;26.00;53.30;;;;;;5077338;28;20191;-5
2022/05/22 12:38:12;;;;;;;5.23;1.77;;;26.00;53.40;;;;;;5074316;28;20207;-6
2022/05/22 12:41:11;;;;;;;2.63;1.70;;;26.00;53.40;;;;;;5076501;28;20177;-6
2022/05/22 12:43:40;;;;;;;3.53;1.73;;;26.00;53.40;;;;;;5076505;28;20561;-8
2022/05/22 12:46:09;;;;;;;2.80;1.70;;;26.00;53.50;;;;;;5077356;28;20172;-6
2022/05/22 12:48:38;;;;;;;2.77;1.80;;;25.90;53.40;;;;;;5071102;28;20172;-6
2022/05/22 12:51:10;;;;;;;4.77;2.17;;;25.90;53.40;;;;;;5075356;28;20187;-6
2022/05/22 12:53:39;;;;;;;3.07;1.60;;;25.90;53.50;;;;;;5060024;28;20175;-7
2022/05/22 12:56:19;;;;;;;4.63;1.70;;;25.90;53.40;;;;;;5076659;28;20581;-7
2022/05/22 12:58:58;;;;;;;3.73;1.80;;;25.90;53.50;;;;;;5075948;28;20171;-6
2022/05/22 13:01:37;;;;;;;3.90;1.90;;;25.90;53.50;;;;;;5075381;28;20257;-6
2022/05/22 13:04:22;;;;;;;4.33;1.80;;;25.90;53.50;;;;;;5075645;28;20573;-7
2022/05/22 13:06:53;;;;;;;2.50;1.77;;;25.90;53.50;;;;;;5073048;28;20195;-6
2022/05/22 13:09:23;;;;;;;3.70;1.70;;;25.90;53.50;;;;;;5076639;28;20214;-6
2022/05/22 13:12:10;;;;;;;3.40;1.80;;;25.90;53.50;;;;;;5075514;28;20240;-5
2022/05/22 13:14:43;;;;;;;2.87;1.80;;;25.90;53.50;;;;;;5076119;28;20182;-7
2022/05/22 13:19:54;;;;;;;2.93;1.70;;;25.90;53.50;;;;;;5068096;28;20216;-8
2022/05/22 13:22:34;;;;;;;3.07;1.80;;;25.90;53.60;;;;;;5053526;28;20182;-8
2022/05/22 13:25:01;;;;;;;3.83;2.00;;;25.90;53.60;;;;;;5060487;28;20262;-9
2022/05/22 13:27:29;;;;;;;2.50;1.60;;;25.90;53.60;;;;;;5055301;28;20739;-9
2022/05/22 13:30:06;;;;;;;2.57;1.70;;;25.90;53.60;;;;;;5052340;28;20420;-9
2022/05/22 13:32:41;;;;;;;2.73;1.70;;;25.90;53.60;;;;;;5044255;28;20358;-9
2022/05/22 13:35:16;;;;;;;3.17;1.70;;;25.90;53.60;;;;;;5052907;28;20289;-9
2022/05/22 13:37:48;;;;;;;2.73;1.77;;;25.80;53.60;;;;;;5052389;28;20203;-9
2022/05/22 13:40:52;;;;;;;2.20;1.50;;;25.80;53.60;;;;;;5054165;28;20195;-9
2022/05/22 13:43:52;;;;;;;3.00;1.83;;;25.80;53.60;;;;;;5053474;28;20188;-9
2022/05/22 13:46:36;;;;;;;2.77;1.80;;;25.80;53.70;;;;;;5069714;28;20194;-9
2022/05/22 13:49:19;;;;;;;2.47;1.63;;;25.80;53.70;;;;;;5076643;28;20202;-9
2022/05/22 13:55:19;;;;;;;3.13;1.70;;;25.80;53.70;;;;;;5050447;28;20249;-9
2022/05/22 13:57:58;;;;;;;2.83;1.50;;;25.80;53.70;;;;;;5071452;28;20197;-9